Airfield :
LOGIN :

Register | Disclaimer

   EN    FR    IT 

 










Legend :    VFR   Marginal VFR   IFR   Intensive IFR   Very Intensive IFR
Visi :
Ceiling :
>= 8 km
>= 3000ft
5 to 8 km
1000 to 3000 ft
1500m to 5 km
500 to 1000 ft
800 to 1500m
200 to 500 ft
< 800m
< 200 ft
Symbols :   Thunderstorms  Fog  Heavy snow  Heavy precipitations  Wind > 20 kt
SIGMETs :     Misc.  Thunderstorms  Icing  Turbulence  Mountain Waves  Volcanic Ashes







- Airport Elevation : 7 ft
- IATA code : POW


LJPZ - Portoroz

CURRENT METAR :
  • 210300Z AUTO 11003KT 3900 BR BKN039/// 13/12 Q1020

EXPIRED METARs :
  • 210230Z AUTO 11004KT 4200 BR BKN038/// 13/12 Q1020
  • 210200Z AUTO 12003KT 4600 BR BKN037/// 13/12 Q1021
  • 210130Z AUTO 12003KT 4200 BR OVC037/// 13/12 Q1021
  • 210100Z AUTO 13004KT 4400 BR SCT034/// BKN040/// 13/11 Q1021
  • 210030Z AUTO 12004KT 4200 BR BKN034/// 13/11 Q1021
  • 210000Z AUTO 12004KT 4300 BR OVC033/// 13/11 Q1021

TAF TAF LJPZ
Valid from the 21 at 03:00 until the 21 at 12:00 UTC


210200Z 2103/2112 12005KT 5000 BR BKN035
TEMPO 2103/2106 3000 SCT030
BECMG 2109/2110 30005KT
No reported NOTAMs for that airfield.



MET'MAP, your aeronautical weather chart ! - Copyright ORBIFLY December 2007 - Disclaimer

ORBIFLY MET'MAP TEAM :

Programming & Development : Alexandra Zaïnal
Concept & Development : Baudouin d'Aumeries
Co-Development & Prog : Marc-Olivier Méhu
Technical & hardware support : Manuel Goepfert

Contact : metmap@orbifly.com




SOURCES & CREDITS :

   NOAA